Řízení letového provozu České republiky
Letiste: LKTB Aktualizace: 09.12.2016 11:33:14  UTC
 METAR LKTB 09.12. 11:30 ...
METAR LKTB 091130Z VRB01KT 5000 BR FEW004 BKN024 M01/M02 Q1028 NOSIG RMK REG QNH 1023=
 TAF LKTB 09.12. 11:00 ...
TAF LKTB 091100Z 0912/1018 VRB02KT 4000 BR SCT003 BKN020      TEMPO 0912/1000 2000 BR BKN003      BECMG 1000/1002 1200 BR OVC002      TEMPO 1002/1008 0700 FG OVC001      PROB30 TEMPO 1003/1007 0300 FG      BECMG 1008/1010 4000 BR BKN004      TEMPO 1010/1018 7000 SCT004 BKN010=